createdAt,value
2022-09-23T00:09:00.166Z,9.40
2022-09-23T00:14:18.660Z,11.27
2022-09-23T00:19:46.632Z,10.07
2022-09-23T00:24:54.755Z,10.03
2022-09-23T00:30:27.753Z,9.10
2022-09-23T00:35:42.959Z,8.43
2022-09-23T00:46:43.086Z,8.20
2022-09-23T00:51:52.565Z,8.93
2022-09-23T00:57:14.169Z,9.53
2022-09-23T01:07:52.455Z,9.37
2022-09-23T01:13:13.296Z,9.87
2022-09-23T01:18:33.128Z,8.90
2022-09-23T01:24:05.093Z,9.30
2022-09-23T01:29:28.229Z,8.13
2022-09-23T01:34:43.169Z,8.80
2022-09-23T01:39:54.033Z,8.33
2022-09-23T01:45:13.704Z,8.53
2022-09-23T01:50:58.964Z,8.23
2022-09-23T02:02:09.107Z,9.27
2022-09-23T02:07:30.418Z,9.77
2022-09-23T02:12:43.402Z,10.13
2022-09-23T02:17:58.568Z,9.67
2022-09-23T02:23:09.470Z,10.10
2022-09-23T02:34:22.080Z,9.97
2022-09-23T02:39:36.725Z,10.07
2022-09-23T02:44:43.276Z,12.33
2022-09-23T02:55:23.545Z,11.27
2022-09-23T03:00:47.815Z,10.97
2022-09-23T03:05:57.868Z,12.10
2022-09-23T03:11:13.728Z,12.37
2022-09-23T03:16:35.016Z,12.33
2022-09-23T03:22:11.985Z,13.73
2022-09-23T03:27:29.943Z,14.20
2022-09-23T03:33:00.328Z,14.33
2022-09-23T03:38:21.528Z,12.00
2022-09-23T03:43:30.092Z,11.93
2022-09-23T03:48:45.532Z,13.07
2022-09-23T03:53:53.264Z,13.00
2022-09-23T03:59:02.932Z,14.17
2022-09-23T04:04:16.365Z,13.50
2022-09-23T04:14:52.834Z,14.60
2022-09-23T04:20:10.363Z,15.00
2022-09-23T04:25:15.693Z,15.13
2022-09-23T04:30:24.007Z,14.80
2022-09-23T04:35:40.296Z,15.73
2022-09-23T04:40:49.036Z,17.80
2022-09-23T04:51:34.075Z,12.80
2022-09-23T04:56:46.074Z,12.60
2022-09-23T05:01:53.495Z,27.60
2022-09-23T05:07:05.985Z,27.87
2022-09-23T05:18:10.965Z,21.40
2022-09-23T05:28:51.800Z,21.70
2022-09-23T05:34:02.407Z,15.53
2022-09-23T05:39:27.673Z,13.03
2022-09-23T05:44:34.390Z,14.10
2022-09-23T05:50:24.507Z,14.90
2022-09-23T05:55:36.704Z,13.43
2022-09-23T06:00:51.877Z,15.10
2022-09-23T06:06:03.822Z,17.17
2022-09-23T06:11:12.528Z,17.77
2022-09-23T06:16:20.345Z,14.93
2022-09-23T06:21:28.938Z,15.67
2022-09-23T06:26:38.766Z,14.63
2022-09-23T06:31:49.897Z,16.27
2022-09-23T06:37:01.051Z,16.93
2022-09-23T06:42:10.140Z,12.93
2022-09-23T06:47:29.161Z,13.27
2022-09-23T06:52:59.165Z,11.70
2022-09-23T06:58:19.728Z,10.77
2022-09-23T07:03:26.066Z,13.03
2022-09-23T07:09:06.393Z,14.87
2022-09-23T07:14:38.641Z,9.83
2022-09-23T07:20:02.013Z,9.00
2022-09-23T07:25:17.224Z,9.00
2022-09-23T07:30:25.671Z,8.57
2022-09-23T07:35:40.606Z,7.87
2022-09-23T07:40:53.485Z,7.83
2022-09-23T08:02:53.344Z,5.80
2022-09-23T08:08:10.209Z,5.33
2022-09-23T08:13:41.615Z,5.20
2022-09-23T08:24:56.222Z,3.40
2022-09-23T08:30:13.033Z,3.30
2022-09-23T09:22:56.919Z,0.70
2022-09-23T09:28:18.190Z,0.70
2022-09-23T09:40:09.326Z,0.50
2022-09-23T09:45:59.246Z,0.43
2022-09-23T10:20:52.269Z,0.60
2022-09-23T10:26:23.665Z,0.70
2022-09-23T10:31:39.016Z,0.90
2022-09-23T10:36:47.473Z,0.90
2022-09-23T10:42:28.862Z,0.97
2022-09-23T10:47:37.324Z,1.10
2022-09-23T10:53:01.334Z,1.10
2022-09-23T10:58:10.850Z,1.67
2022-09-23T11:03:40.346Z,0.93
2022-09-23T11:09:06.681Z,0.70
2022-09-23T11:14:32.106Z,0.70
2022-09-23T11:20:14.027Z,0.70
2022-09-23T11:25:27.697Z,0.80
2022-09-23T11:30:53.619Z,0.90
2022-09-23T11:36:13.506Z,0.70
2022-09-23T11:47:02.880Z,1.17
2022-09-23T11:52:11.270Z,1.07
2022-09-23T11:57:44.640Z,0.60
2022-09-23T12:08:28.742Z,0.70
2022-09-23T12:13:52.190Z,0.60
2022-09-23T12:19:01.332Z,0.60
2022-09-23T12:24:21.369Z,0.50
2022-09-23T12:34:45.260Z,0.90
2022-09-23T12:39:53.117Z,0.90
2022-09-23T12:45:17.899Z,0.73
2022-09-23T12:50:58.810Z,0.80
2022-09-23T12:56:26.387Z,1.10
2022-09-23T13:01:41.943Z,0.80
2022-09-23T13:07:08.994Z,0.47
2022-09-23T13:12:23.157Z,0.70
2022-09-23T13:17:39.927Z,0.83
2022-09-23T13:22:53.929Z,0.60
2022-09-23T13:28:06.987Z,0.57
2022-09-23T13:33:38.033Z,0.90
2022-09-23T13:38:43.453Z,1.20
2022-09-23T13:43:56.180Z,0.80
2022-09-23T13:49:04.420Z,0.70
2022-09-23T13:54:30.540Z,0.97
2022-09-23T13:59:46.771Z,0.87
2022-09-23T14:05:15.873Z,0.97
2022-09-23T14:10:28.676Z,1.10
2022-09-23T14:15:45.441Z,0.80
2022-09-23T14:20:52.493Z,2.17
2022-09-23T14:25:59.373Z,1.10
2022-09-23T14:31:08.196Z,0.90
2022-09-23T14:36:37.183Z,18.23
2022-09-23T14:41:45.893Z,1.20
2022-09-23T14:46:59.912Z,1.00
2022-09-23T14:52:07.649Z,0.80
2022-09-23T14:57:30.649Z,0.70
2022-09-23T15:02:42.771Z,0.70
2022-09-23T15:07:53.418Z,0.93
2022-09-23T15:13:28.896Z,0.90
2022-09-23T15:18:37.258Z,1.50
2022-09-23T15:23:47.843Z,1.53
2022-09-23T15:28:56.246Z,1.50
2022-09-23T15:34:01.494Z,1.83
2022-09-23T15:39:11.186Z,1.93
2022-09-23T15:44:20.891Z,2.20
2022-09-23T15:49:35.689Z,1.80
2022-09-23T15:54:42.039Z,2.53
2022-09-23T15:59:54.891Z,2.00
2022-09-23T16:05:01.633Z,2.30
2022-09-23T16:10:09.461Z,3.83
2022-09-23T16:15:20.692Z,5.73
2022-09-23T16:20:30.022Z,5.23
2022-09-23T16:25:38.060Z,6.23
2022-09-23T16:30:43.554Z,6.60
2022-09-23T16:35:50.795Z,6.97
2022-09-23T16:40:58.221Z,12.77
2022-09-23T16:46:03.491Z,11.03
2022-09-23T16:51:11.579Z,6.57
2022-09-23T16:56:30.064Z,13.87
2022-09-23T17:01:54.166Z,16.90
2022-09-23T17:06:59.903Z,13.17
2022-09-23T17:12:13.992Z,12.03
2022-09-23T17:17:24.354Z,13.43
2022-09-23T17:22:31.665Z,10.50
2022-09-23T17:27:38.014Z,10.90
2022-09-23T17:32:43.860Z,10.37
2022-09-23T17:37:52.786Z,9.33
2022-09-23T17:42:58.140Z,8.33
2022-09-23T17:48:04.931Z,10.00
2022-09-23T17:53:10.370Z,19.13
2022-09-23T17:58:15.896Z,15.20
2022-09-23T18:03:22.429Z,16.50
2022-09-23T18:08:29.254Z,18.10
2022-09-23T18:13:34.570Z,18.47
2022-09-23T18:18:39.773Z,18.93
2022-09-23T18:23:45.179Z,19.20
2022-09-23T18:28:54.561Z,21.87
2022-09-23T18:33:59.951Z,18.57
2022-09-23T18:39:05.914Z,14.23
2022-09-23T18:44:11.515Z,13.03
2022-09-23T18:49:34.945Z,14.87
2022-09-23T18:54:40.210Z,16.13
2022-09-23T18:59:47.626Z,15.37
2022-09-23T19:04:53.065Z,14.43
2022-09-23T19:09:58.628Z,12.90
2022-09-23T19:15:08.332Z,17.33
2022-09-23T19:20:13.736Z,18.93
2022-09-23T19:25:19.284Z,19.63
2022-09-23T19:30:25.631Z,19.33
2022-09-23T19:35:32.681Z,21.30
2022-09-23T19:40:39.756Z,17.40
2022-09-23T19:45:45.231Z,17.77
2022-09-23T19:50:51.366Z,17.53
2022-09-23T19:55:57.404Z,15.23
2022-09-23T20:01:04.641Z,15.93
2022-09-23T20:06:10.300Z,19.27
2022-09-23T20:11:18.396Z,19.77
2022-09-23T20:16:23.650Z,21.33
2022-09-23T20:21:30.200Z,22.60
2022-09-23T20:26:53.329Z,19.63
2022-09-23T20:32:00.048Z,19.20
2022-09-23T20:37:06.444Z,17.00
2022-09-23T20:42:13.743Z,18.87
2022-09-23T20:47:20.169Z,20.10
2022-09-23T20:52:25.471Z,17.43
2022-09-23T20:57:32.177Z,19.20
2022-09-23T21:02:37.505Z,18.90
2022-09-23T21:07:42.758Z,19.23
2022-09-23T21:12:50.576Z,18.43
2022-09-23T21:17:55.845Z,17.27
2022-09-23T21:23:02.610Z,19.93
2022-09-23T21:28:08.108Z,19.30
2022-09-23T21:33:14.704Z,19.63
2022-09-23T21:38:25.172Z,16.67
2022-09-23T21:43:33.781Z,16.93
2022-09-23T21:48:45.791Z,15.57
2022-09-23T21:53:54.535Z,16.63
2022-09-23T21:59:01.536Z,15.07
2022-09-23T22:04:10.653Z,16.40
2022-09-23T22:09:19.835Z,18.47
2022-09-23T22:14:26.665Z,16.73
2022-09-23T22:19:36.306Z,17.77
2022-09-23T22:24:45.845Z,17.63
2022-09-23T22:30:11.232Z,17.50
2022-09-23T22:35:18.930Z,15.67
2022-09-23T22:40:25.716Z,15.43
2022-09-23T22:45:32.595Z,14.67
2022-09-23T22:50:40.330Z,15.43
2022-09-23T22:55:45.573Z,14.57
2022-09-23T23:00:52.432Z,13.70
2022-09-23T23:06:02.005Z,14.53
2022-09-23T23:11:12.432Z,16.07
2022-09-23T23:16:18.363Z,13.60
2022-09-23T23:21:24.210Z,13.87
2022-09-23T23:26:32.319Z,13.17
2022-09-23T23:31:44.107Z,13.80
2022-09-23T23:36:58.069Z,12.50
2022-09-23T23:42:05.139Z,14.57
2022-09-23T23:47:11.252Z,12.67
2022-09-23T23:52:19.378Z,12.87
2022-09-23T23:57:24.629Z,12.03
